sensor_id;sensor_type;location;lat;lon;timestamp;temperature;humidity
37528;DHT22;23372;52.050;4.810;2023-04-15T00:02:22;7.70;99.90
37528;DHT22;23372;52.050;4.810;2023-04-15T00:04:48;7.70;99.90
37528;DHT22;23372;52.050;4.810;2023-04-15T00:07:13;7.70;99.90
37528;DHT22;23372;52.050;4.810;2023-04-15T00:09:40;7.70;99.90
37528;DHT22;23372;52.050;4.810;2023-04-15T00:12:06;7.70;99.90
37528;DHT22;23372;52.050;4.810;2023-04-15T00:14:45;7.60;99.90
37528;DHT22;23372;52.050;4.810;2023-04-15T00:17:11;7.60;99.90
37528;DHT22;23372;52.050;4.810;2023-04-15T00:19:36;7.60;99.90
37528;DHT22;23372;52.050;4.810;2023-04-15T00:22:02;7.50;99.90
37528;DHT22;23372;52.050;4.810;2023-04-15T00:24:28;7.50;99.90
37528;DHT22;23372;52.050;4.810;2023-04-15T00:26:55;7.50;99.90
37528;DHT22;23372;52.050;4.810;2023-04-15T00:29:20;7.50;99.90
37528;DHT22;23372;52.050;4.810;2023-04-15T00:31:46;7.50;99.90
37528;DHT22;23372;52.050;4.810;2023-04-15T00:34:11;7.50;99.90
37528;DHT22;23372;52.050;4.810;2023-04-15T00:36:37;7.50;99.90
37528;DHT22;23372;52.050;4.810;2023-04-15T00:39:02;7.50;99.90
37528;DHT22;23372;52.050;4.810;2023-04-15T00:41:28;7.50;99.90
37528;DHT22;23372;52.050;4.810;2023-04-15T00:43:54;7.50;99.90
37528;DHT22;23372;52.050;4.810;2023-04-15T00:46:20;7.50;99.90
37528;DHT22;23372;52.050;4.810;2023-04-15T00:48:46;7.40;99.90
37528;DHT22;23372;52.050;4.810;2023-04-15T00:51:13;7.40;99.90
37528;DHT22;23372;52.050;4.810;2023-04-15T00:53:39;7.30;99.90
37528;DHT22;23372;52.050;4.810;2023-04-15T00:56:05;7.30;99.90
37528;DHT22;23372;52.050;4.810;2023-04-15T00:58:31;7.30;99.90
37528;DHT22;23372;52.050;4.810;2023-04-15T01:00:57;7.30;99.90
37528;DHT22;23372;52.050;4.810;2023-04-15T01:03:23;7.20;99.90
37528;DHT22;23372;52.050;4.810;2023-04-15T01:05:49;7.20;99.90
37528;DHT22;23372;52.050;4.810;2023-04-15T01:08:15;7.20;99.90
37528;DHT22;23372;52.050;4.810;2023-04-15T01:10:40;7.10;99.90
37528;DHT22;23372;52.050;4.810;2023-04-15T01:13:06;7.10;99.90
37528;DHT22;23372;52.050;4.810;2023-04-15T01:15:32;7.00;99.90
37528;DHT22;23372;52.050;4.810;2023-04-15T01:18:01;7.00;99.90
37528;DHT22;23372;52.050;4.810;2023-04-15T01:20:28;7.00;99.90
37528;DHT22;23372;52.050;4.810;2023-04-15T01:22:54;6.90;99.90
37528;DHT22;23372;52.050;4.810;2023-04-15T01:25:33;6.90;99.90
37528;DHT22;23372;52.050;4.810;2023-04-15T01:27:59;6.80;99.90
37528;DHT22;23372;52.050;4.810;2023-04-15T01:30:25;6.90;99.90
37528;DHT22;23372;52.050;4.810;2023-04-15T01:32:51;6.90;99.90
37528;DHT22;23372;52.050;4.810;2023-04-15T01:35:17;7.00;99.90
37528;DHT22;23372;52.050;4.810;2023-04-15T01:37:43;7.00;99.90
37528;DHT22;23372;52.050;4.810;2023-04-15T01:40:09;7.00;99.90
37528;DHT22;23372;52.050;4.810;2023-04-15T01:42:35;7.10;99.90
37528;DHT22;23372;52.050;4.810;2023-04-15T01:45:02;7.10;99.90
37528;DHT22;23372;52.050;4.810;2023-04-15T01:47:28;7.10;99.90
37528;DHT22;23372;52.050;4.810;2023-04-15T01:49:53;7.10;99.90
37528;DHT22;23372;52.050;4.810;2023-04-15T01:52:19;7.00;99.90
37528;DHT22;23372;52.050;4.810;2023-04-15T01:54:45;7.00;99.90
37528;DHT22;23372;52.050;4.810;2023-04-15T01:57:10;6.90;99.90
37528;DHT22;23372;52.050;4.810;2023-04-15T01:59:36;6.90;99.90
37528;DHT22;23372;52.050;4.810;2023-04-15T02:02:02;6.90;99.90
37528;DHT22;23372;52.050;4.810;2023-04-15T02:04:28;6.80;99.90
37528;DHT22;23372;52.050;4.810;2023-04-15T02:06:54;6.80;99.90
37528;DHT22;23372;52.050;4.810;2023-04-15T02:09:19;6.90;99.90
37528;DHT22;23372;52.050;4.810;2023-04-15T02:11:45;6.90;99.90
37528;DHT22;23372;52.050;4.810;2023-04-15T02:14:11;6.90;99.90
37528;DHT22;23372;52.050;4.810;2023-04-15T02:16:37;6.90;99.90
37528;DHT22;23372;52.050;4.810;2023-04-15T02:19:02;7.00;99.90
37528;DHT22;23372;52.050;4.810;2023-04-15T02:21:29;7.00;99.90
37528;DHT22;23372;52.050;4.810;2023-04-15T02:23:54;7.20;99.90
37528;DHT22;23372;52.050;4.810;2023-04-15T02:26:20;7.20;99.90
37528;DHT22;23372;52.050;4.810;2023-04-15T02:28:47;7.20;99.90
37528;DHT22;23372;52.050;4.810;2023-04-15T02:31:13;7.20;99.90
37528;DHT22;23372;52.050;4.810;2023-04-15T02:33:39;7.10;99.90
37528;DHT22;23372;52.050;4.810;2023-04-15T02:36:05;7.10;99.90
37528;DHT22;23372;52.050;4.810;2023-04-15T02:38:32;7.00;99.90
37528;DHT22;23372;52.050;4.810;2023-04-15T02:40:57;6.90;99.90
37528;DHT22;23372;52.050;4.810;2023-04-15T02:43:23;6.90;99.90
37528;DHT22;23372;52.050;4.810;2023-04-15T02:45:49;6.80;99.90
37528;DHT22;23372;52.050;4.810;2023-04-15T02:48:15;6.90;99.90
37528;DHT22;23372;52.050;4.810;2023-04-15T02:50:43;6.90;99.90
37528;DHT22;23372;52.050;4.810;2023-04-15T02:53:08;7.00;99.90
37528;DHT22;23372;52.050;4.810;2023-04-15T02:55:34;7.10;99.90
37528;DHT22;23372;52.050;4.810;2023-04-15T02:58:00;7.10;99.90
37528;DHT22;23372;52.050;4.810;2023-04-15T03:00:26;7.20;99.90
37528;DHT22;23372;52.050;4.810;2023-04-15T03:03:05;7.20;99.90
37528;DHT22;23372;52.050;4.810;2023-04-15T03:05:31;7.10;99.90
37528;DHT22;23372;52.050;4.810;2023-04-15T03:07:57;7.10;99.90
37528;DHT22;23372;52.050;4.810;2023-04-15T03:10:23;7.10;99.90
37528;DHT22;23372;52.050;4.810;2023-04-15T03:12:48;7.10;99.90
37528;DHT22;23372;52.050;4.810;2023-04-15T03:15:14;7.10;99.90
37528;DHT22;23372;52.050;4.810;2023-04-15T03:17:39;7.10;99.90
37528;DHT22;23372;52.050;4.810;2023-04-15T03:20:06;7.20;99.90
37528;DHT22;23372;52.050;4.810;2023-04-15T03:22:32;7.30;99.90
37528;DHT22;23372;52.050;4.810;2023-04-15T03:24:57;7.20;99.90
37528;DHT22;23372;52.050;4.810;2023-04-15T03:27:24;7.20;99.90
37528;DHT22;23372;52.050;4.810;2023-04-15T03:29:50;7.20;99.90
37528;DHT22;23372;52.050;4.810;2023-04-15T03:32:16;7.20;99.90
37528;DHT22;23372;52.050;4.810;2023-04-15T03:34:41;7.10;99.90
37528;DHT22;23372;52.050;4.810;2023-04-15T03:37:07;7.10;99.90
37528;DHT22;23372;52.050;4.810;2023-04-15T03:39:33;7.00;99.90
37528;DHT22;23372;52.050;4.810;2023-04-15T03:41:58;7.00;99.90
37528;DHT22;23372;52.050;4.810;2023-04-15T03:44:25;7.00;99.90
37528;DHT22;23372;52.050;4.810;2023-04-15T03:46:51;6.90;99.90
37528;DHT22;23372;52.050;4.810;2023-04-15T03:49:16;6.90;99.90
37528;DHT22;23372;52.050;4.810;2023-04-15T03:51:43;6.80;99.90
37528;DHT22;23372;52.050;4.810;2023-04-15T03:54:09;6.90;99.90
37528;DHT22;23372;52.050;4.810;2023-04-15T03:56:35;6.90;99.90
37528;DHT22;23372;52.050;4.810;2023-04-15T03:59:01;6.90;99.90
37528;DHT22;23372;52.050;4.810;2023-04-15T04:01:26;6.90;99.90
37528;DHT22;23372;52.050;4.810;2023-04-15T04:03:52;6.90;99.90
37528;DHT22;23372;52.050;4.810;2023-04-15T04:06:17;6.90;99.90
37528;DHT22;23372;52.050;4.810;2023-04-15T04:08:43;6.90;99.90
37528;DHT22;23372;52.050;4.810;2023-04-15T04:11:09;6.90;99.90
37528;DHT22;23372;52.050;4.810;2023-04-15T04:13:34;6.90;99.90
37528;DHT22;23372;52.050;4.810;2023-04-15T04:16:00;6.90;99.90
37528;DHT22;23372;52.050;4.810;2023-04-15T04:18:25;6.90;99.90
37528;DHT22;23372;52.050;4.810;2023-04-15T04:20:51;6.80;99.90
37528;DHT22;23372;52.050;4.810;2023-04-15T04:23:17;6.80;99.90
37528;DHT22;23372;52.050;4.810;2023-04-15T04:25:42;6.80;99.90
37528;DHT22;23372;52.050;4.810;2023-04-15T04:28:08;6.70;99.90
37528;DHT22;23372;52.050;4.810;2023-04-15T04:30:34;6.70;99.90
37528;DHT22;23372;52.050;4.810;2023-04-15T04:33:00;6.60;99.90
37528;DHT22;23372;52.050;4.810;2023-04-15T04:35:26;6.60;99.90
37528;DHT22;23372;52.050;4.810;2023-04-15T04:37:52;6.60;99.90
37528;DHT22;23372;52.050;4.810;2023-04-15T04:40:18;6.50;99.90
37528;DHT22;23372;52.050;4.810;2023-04-15T04:42:43;6.50;99.90
37528;DHT22;23372;52.050;4.810;2023-04-15T04:45:09;6.40;99.90
37528;DHT22;23372;52.050;4.810;2023-04-15T04:47:35;6.40;99.90
37528;DHT22;23372;52.050;4.810;2023-04-15T04:50:01;6.40;99.90
37528;DHT22;23372;52.050;4.810;2023-04-15T04:52:26;6.40;99.90
37528;DHT22;23372;52.050;4.810;2023-04-15T04:54:52;6.40;99.90
37528;DHT22;23372;52.050;4.810;2023-04-15T04:57:17;6.40;99.90
37528;DHT22;23372;52.050;4.810;2023-04-15T04:59:43;6.50;99.90
37528;DHT22;23372;52.050;4.810;2023-04-15T05:02:08;6.50;99.90
37528;DHT22;23372;52.050;4.810;2023-04-15T05:04:34;6.50;99.90
37528;DHT22;23372;52.050;4.810;2023-04-15T05:07:01;6.50;99.90
37528;DHT22;23372;52.050;4.810;2023-04-15T05:09:26;6.50;99.90
37528;DHT22;23372;52.050;4.810;2023-04-15T05:11:52;6.50;99.90
37528;DHT22;23372;52.050;4.810;2023-04-15T05:14:18;6.50;99.90
37528;DHT22;23372;52.050;4.810;2023-04-15T05:16:43;6.40;99.90
37528;DHT22;23372;52.050;4.810;2023-04-15T05:19:09;6.40;99.90
37528;DHT22;23372;52.050;4.810;2023-04-15T05:21:34;6.50;99.90
37528;DHT22;23372;52.050;4.810;2023-04-15T05:24:00;6.50;99.90
37528;DHT22;23372;52.050;4.810;2023-04-15T05:26:25;6.50;99.90
37528;DHT22;23372;52.050;4.810;2023-04-15T05:28:51;6.60;99.90
37528;DHT22;23372;52.050;4.810;2023-04-15T05:31:17;6.70;99.90
37528;DHT22;23372;52.050;4.810;2023-04-15T05:33:43;6.80;99.90
37528;DHT22;23372;52.050;4.810;2023-04-15T05:36:08;6.90;99.90
37528;DHT22;23372;52.050;4.810;2023-04-15T05:38:34;7.00;99.90
37528;DHT22;23372;52.050;4.810;2023-04-15T05:41:00;7.10;99.90
37528;DHT22;23372;52.050;4.810;2023-04-15T05:43:25;7.20;99.90
37528;DHT22;23372;52.050;4.810;2023-04-15T05:45:51;7.30;99.90
37528;DHT22;23372;52.050;4.810;2023-04-15T05:48:16;7.50;99.90
37528;DHT22;23372;52.050;4.810;2023-04-15T05:50:42;7.60;99.90
37528;DHT22;23372;52.050;4.810;2023-04-15T05:53:08;7.60;99.90
37528;DHT22;23372;52.050;4.810;2023-04-15T05:55:33;7.70;99.90
37528;DHT22;23372;52.050;4.810;2023-04-15T05:57:59;7.70;99.90
37528;DHT22;23372;52.050;4.810;2023-04-15T06:00:25;7.80;99.90
37528;DHT22;23372;52.050;4.810;2023-04-15T06:02:50;7.90;99.90
37528;DHT22;23372;52.050;4.810;2023-04-15T06:05:17;7.90;99.90
37528;DHT22;23372;52.050;4.810;2023-04-15T06:07:42;8.10;99.90
37528;DHT22;23372;52.050;4.810;2023-04-15T06:10:08;8.20;99.90
37528;DHT22;23372;52.050;4.810;2023-04-15T06:12:34;8.30;99.90
37528;DHT22;23372;52.050;4.810;2023-04-15T06:15:00;8.40;99.90
37528;DHT22;23372;52.050;4.810;2023-04-15T06:17:26;8.60;99.90
37528;DHT22;23372;52.050;4.810;2023-04-15T06:19:52;8.60;99.90
37528;DHT22;23372;52.050;4.810;2023-04-15T06:22:21;8.70;99.90
37528;DHT22;23372;52.050;4.810;2023-04-15T06:24:47;8.80;99.90
37528;DHT22;23372;52.050;4.810;2023-04-15T06:27:15;8.80;99.90
37528;DHT22;23372;52.050;4.810;2023-04-15T06:29:40;9.10;99.90
37528;DHT22;23372;52.050;4.810;2023-04-15T06:32:06;9.40;99.90
37528;DHT22;23372;52.050;4.810;2023-04-15T06:34:32;9.70;99.90
37528;DHT22;23372;52.050;4.810;2023-04-15T06:36:57;9.90;99.90
37528;DHT22;23372;52.050;4.810;2023-04-15T06:39:23;10.70;99.90
37528;DHT22;23372;52.050;4.810;2023-04-15T06:41:48;11.50;99.90
37528;DHT22;23372;52.050;4.810;2023-04-15T06:44:14;12.40;99.90
37528;DHT22;23372;52.050;4.810;2023-04-15T06:46:40;12.70;99.90
37528;DHT22;23372;52.050;4.810;2023-04-15T06:49:06;13.30;99.90
37528;DHT22;23372;52.050;4.810;2023-04-15T06:51:31;13.50;99.90
37528;DHT22;23372;52.050;4.810;2023-04-15T06:53:57;14.30;99.90
37528;DHT22;23372;52.050;4.810;2023-04-15T06:56:22;14.80;99.90
37528;DHT22;23372;52.050;4.810;2023-04-15T06:58:48;15.30;99.90
37528;DHT22;23372;52.050;4.810;2023-04-15T07:01:13;16.00;99.90
37528;DHT22;23372;52.050;4.810;2023-04-15T07:03:39;16.30;99.90
37528;DHT22;23372;52.050;4.810;2023-04-15T07:06:06;16.10;99.90
37528;DHT22;23372;52.050;4.810;2023-04-15T07:08:32;16.20;99.90
37528;DHT22;23372;52.050;4.810;2023-04-15T07:10:59;16.00;99.90
37528;DHT22;23372;52.050;4.810;2023-04-15T07:13:24;16.30;99.90
37528;DHT22;23372;52.050;4.810;2023-04-15T07:15:50;16.90;99.90
37528;DHT22;23372;52.050;4.810;2023-04-15T07:18:16;16.80;99.90
37528;DHT22;23372;52.050;4.810;2023-04-15T07:20:41;17.40;99.90
37528;DHT22;23372;52.050;4.810;2023-04-15T07:23:07;18.10;99.90
37528;DHT22;23372;52.050;4.810;2023-04-15T07:25:32;18.40;99.90
37528;DHT22;23372;52.050;4.810;2023-04-15T07:27:58;19.00;99.90
37528;DHT22;23372;52.050;4.810;2023-04-15T07:30:23;19.20;99.90
37528;DHT22;23372;52.050;4.810;2023-04-15T07:32:49;19.10;99.90
37528;DHT22;23372;52.050;4.810;2023-04-15T07:35:15;19.00;99.90
37528;DHT22;23372;52.050;4.810;2023-04-15T07:37:40;19.20;99.90
37528;DHT22;23372;52.050;4.810;2023-04-15T07:40:08;19.50;99.90
37528;DHT22;23372;52.050;4.810;2023-04-15T07:42:34;18.90;99.90
37528;DHT22;23372;52.050;4.810;2023-04-15T07:44:59;18.30;99.90
37528;DHT22;23372;52.050;4.810;2023-04-15T07:47:25;18.10;99.90
37528;DHT22;23372;52.050;4.810;2023-04-15T07:49:51;18.50;99.90
37528;DHT22;23372;52.050;4.810;2023-04-15T07:52:17;18.80;99.90
37528;DHT22;23372;52.050;4.810;2023-04-15T07:54:44;18.70;99.90
37528;DHT22;23372;52.050;4.810;2023-04-15T07:57:10;19.50;99.90
37528;DHT22;23372;52.050;4.810;2023-04-15T07:59:36;18.70;99.90
37528;DHT22;23372;52.050;4.810;2023-04-15T08:02:01;19.00;99.90
37528;DHT22;23372;52.050;4.810;2023-04-15T08:04:27;19.00;99.90
37528;DHT22;23372;52.050;4.810;2023-04-15T08:06:53;19.60;99.90
37528;DHT22;23372;52.050;4.810;2023-04-15T08:09:19;19.20;99.90
37528;DHT22;23372;52.050;4.810;2023-04-15T08:11:47;18.60;99.90
37528;DHT22;23372;52.050;4.810;2023-04-15T08:14:13;18.80;99.90
37528;DHT22;23372;52.050;4.810;2023-04-15T08:16:38;18.70;99.90
37528;DHT22;23372;52.050;4.810;2023-04-15T08:19:04;19.70;99.90
37528;DHT22;23372;52.050;4.810;2023-04-15T08:21:30;19.40;99.90
37528;DHT22;23372;52.050;4.810;2023-04-15T08:23:55;19.10;99.90
37528;DHT22;23372;52.050;4.810;2023-04-15T08:26:21;19.30;99.90
37528;DHT22;23372;52.050;4.810;2023-04-15T08:28:48;19.70;99.90
37528;DHT22;23372;52.050;4.810;2023-04-15T08:31:14;18.80;99.90
37528;DHT22;23372;52.050;4.810;2023-04-15T08:33:40;19.30;99.90
37528;DHT22;23372;52.050;4.810;2023-04-15T08:36:06;19.50;99.90
37528;DHT22;23372;52.050;4.810;2023-04-15T08:38:32;19.80;99.90
37528;DHT22;23372;52.050;4.810;2023-04-15T08:40:59;18.60;99.90
37528;DHT22;23372;52.050;4.810;2023-04-15T08:43:27;18.60;99.90
37528;DHT22;23372;52.050;4.810;2023-04-15T08:45:54;18.60;99.90
37528;DHT22;23372;52.050;4.810;2023-04-15T08:48:24;18.30;99.90
37528;DHT22;23372;52.050;4.810;2023-04-15T08:50:52;17.60;99.90
37528;DHT22;23372;52.050;4.810;2023-04-15T08:53:18;16.90;99.90
37528;DHT22;23372;52.050;4.810;2023-04-15T08:55:45;16.20;99.90
37528;DHT22;23372;52.050;4.810;2023-04-15T08:58:15;16.10;99.90
37528;DHT22;23372;52.050;4.810;2023-04-15T09:00:41;15.90;99.90
37528;DHT22;23372;52.050;4.810;2023-04-15T09:03:07;16.00;99.90
37528;DHT22;23372;52.050;4.810;2023-04-15T09:05:34;15.40;99.90
37528;DHT22;23372;52.050;4.810;2023-04-15T09:08:01;15.10;99.90
37528;DHT22;23372;52.050;4.810;2023-04-15T09:10:27;14.80;99.90
37528;DHT22;23372;52.050;4.810;2023-04-15T09:12:53;14.70;99.90
37528;DHT22;23372;52.050;4.810;2023-04-15T09:15:19;15.10;99.90
37528;DHT22;23372;52.050;4.810;2023-04-15T09:17:45;14.70;99.90
37528;DHT22;23372;52.050;4.810;2023-04-15T09:20:13;14.50;99.90
37528;DHT22;23372;52.050;4.810;2023-04-15T09:22:40;14.60;99.90
37528;DHT22;23372;52.050;4.810;2023-04-15T09:25:25;14.70;99.90
37528;DHT22;23372;52.050;4.810;2023-04-15T09:28:01;14.20;99.90
37528;DHT22;23372;52.050;4.810;2023-04-15T09:30:28;14.30;99.90
37528;DHT22;23372;52.050;4.810;2023-04-15T09:32:55;14.30;99.90
37528;DHT22;23372;52.050;4.810;2023-04-15T09:35:22;14.40;99.90
37528;DHT22;23372;52.050;4.810;2023-04-15T09:37:48;14.60;99.90
37528;DHT22;23372;52.050;4.810;2023-04-15T09:40:30;14.60;99.90
37528;DHT22;23372;52.050;4.810;2023-04-15T09:42:56;14.80;99.90
37528;DHT22;23372;52.050;4.810;2023-04-15T09:45:22;14.70;99.90
37528;DHT22;23372;52.050;4.810;2023-04-15T09:47:48;14.70;99.90
37528;DHT22;23372;52.050;4.810;2023-04-15T09:50:18;14.60;99.90
37528;DHT22;23372;52.050;4.810;2023-04-15T09:52:44;14.70;99.90
37528;DHT22;23372;52.050;4.810;2023-04-15T09:55:11;15.00;99.90
37528;DHT22;23372;52.050;4.810;2023-04-15T09:57:38;14.90;99.90
37528;DHT22;23372;52.050;4.810;2023-04-15T10:00:07;15.50;99.90
37528;DHT22;23372;52.050;4.810;2023-04-15T10:02:33;15.90;99.90
37528;DHT22;23372;52.050;4.810;2023-04-15T10:05:01;15.60;99.90
37528;DHT22;23372;52.050;4.810;2023-04-15T10:07:27;15.10;99.90
37528;DHT22;23372;52.050;4.810;2023-04-15T10:09:53;14.80;99.90
37528;DHT22;23372;52.050;4.810;2023-04-15T10:12:19;14.90;99.90
37528;DHT22;23372;52.050;4.810;2023-04-15T10:15:00;15.20;99.90
37528;DHT22;23372;52.050;4.810;2023-04-15T10:17:29;15.30;99.90
37528;DHT22;23372;52.050;4.810;2023-04-15T10:20:00;15.10;99.90
37528;DHT22;23372;52.050;4.810;2023-04-15T10:22:27;15.00;99.90
37528;DHT22;23372;52.050;4.810;2023-04-15T10:24:57;14.90;99.90
37528;DHT22;23372;52.050;4.810;2023-04-15T10:27:24;15.20;99.90
37528;DHT22;23372;52.050;4.810;2023-04-15T10:29:51;15.20;99.90
37528;DHT22;23372;52.050;4.810;2023-04-15T10:32:20;14.70;99.90
37528;DHT22;23372;52.050;4.810;2023-04-15T10:34:47;14.50;99.90
37528;DHT22;23372;52.050;4.810;2023-04-15T10:37:22;14.30;99.90
37528;DHT22;23372;52.050;4.810;2023-04-15T10:39:57;14.70;99.90
37528;DHT22;23372;52.050;4.810;2023-04-15T10:42:22;14.50;99.90
37528;DHT22;23372;52.050;4.810;2023-04-15T10:44:50;14.50;99.90
37528;DHT22;23372;52.050;4.810;2023-04-15T10:47:17;14.50;99.90
37528;DHT22;23372;52.050;4.810;2023-04-15T10:49:49;15.10;99.90
37528;DHT22;23372;52.050;4.810;2023-04-15T10:52:17;15.40;99.90
37528;DHT22;23372;52.050;4.810;2023-04-15T10:54:43;15.00;99.90
37528;DHT22;23372;52.050;4.810;2023-04-15T10:57:21;15.10;99.90
37528;DHT22;23372;52.050;4.810;2023-04-15T11:00:12;15.00;99.90
37528;DHT22;23372;52.050;4.810;2023-04-15T11:02:47;14.40;99.90
37528;DHT22;23372;52.050;4.810;2023-04-15T11:05:17;14.70;99.90
37528;DHT22;23372;52.050;4.810;2023-04-15T11:12:56;14.80;99.90
37528;DHT22;23372;52.050;4.810;2023-04-15T11:15:31;14.90;99.90
37528;DHT22;23372;52.050;4.810;2023-04-15T11:17:58;14.90;99.90
37528;DHT22;23372;52.050;4.810;2023-04-15T11:20:25;14.60;99.90
37528;DHT22;23372;52.050;4.810;2023-04-15T11:22:54;14.70;99.90
37528;DHT22;23372;52.050;4.810;2023-04-15T11:25:27;14.50;99.90
37528;DHT22;23372;52.050;4.810;2023-04-15T11:27:53;14.70;99.90
37528;DHT22;23372;52.050;4.810;2023-04-15T11:30:21;14.90;99.90
37528;DHT22;23372;52.050;4.810;2023-04-15T11:32:51;14.50;99.90
37528;DHT22;23372;52.050;4.810;2023-04-15T11:35:17;14.50;99.90
37528;DHT22;23372;52.050;4.810;2023-04-15T11:37:43;14.80;99.90
37528;DHT22;23372;52.050;4.810;2023-04-15T11:40:10;14.80;99.90
37528;DHT22;23372;52.050;4.810;2023-04-15T11:42:35;14.60;99.90
37528;DHT22;23372;52.050;4.810;2023-04-15T11:45:10;14.30;99.90
37528;DHT22;23372;52.050;4.810;2023-04-15T11:47:36;14.50;99.90
37528;DHT22;23372;52.050;4.810;2023-04-15T11:50:18;14.70;99.90
37528;DHT22;23372;52.050;4.810;2023-04-15T11:55:22;15.00;99.90
37528;DHT22;23372;52.050;4.810;2023-04-15T11:57:50;15.40;99.90
37528;DHT22;23372;52.050;4.810;2023-04-15T12:00:16;15.40;99.90
37528;DHT22;23372;52.050;4.810;2023-04-15T12:02:42;15.80;99.90
37528;DHT22;23372;52.050;4.810;2023-04-15T12:05:08;15.70;99.90
37528;DHT22;23372;52.050;4.810;2023-04-15T12:07:57;15.50;99.90
37528;DHT22;23372;52.050;4.810;2023-04-15T12:10:24;15.30;99.90
37528;DHT22;23372;52.050;4.810;2023-04-15T12:12:51;15.50;99.90
37528;DHT22;23372;52.050;4.810;2023-04-15T12:15:21;15.10;99.90
37528;DHT22;23372;52.050;4.810;2023-04-15T12:17:46;15.20;99.90
37528;DHT22;23372;52.050;4.810;2023-04-15T12:20:12;15.40;99.90
37528;DHT22;23372;52.050;4.810;2023-04-15T12:22:37;15.80;99.90
37528;DHT22;23372;52.050;4.810;2023-04-15T12:25:03;15.70;99.90
37528;DHT22;23372;52.050;4.810;2023-04-15T12:27:30;15.40;99.90
37528;DHT22;23372;52.050;4.810;2023-04-15T12:30:04;15.30;99.90
37528;DHT22;23372;52.050;4.810;2023-04-15T12:32:34;15.50;99.90
37528;DHT22;23372;52.050;4.810;2023-04-15T12:34:59;14.60;99.90
37528;DHT22;23372;52.050;4.810;2023-04-15T12:37:25;14.80;99.90
37528;DHT22;23372;52.050;4.810;2023-04-15T12:39:51;14.90;99.90
37528;DHT22;23372;52.050;4.810;2023-04-15T12:42:18;15.00;99.90
37528;DHT22;23372;52.050;4.810;2023-04-15T12:44:44;14.90;99.90
37528;DHT22;23372;52.050;4.810;2023-04-15T12:47:10;14.90;99.90
37528;DHT22;23372;52.050;4.810;2023-04-15T12:49:36;14.90;99.90
37528;DHT22;23372;52.050;4.810;2023-04-15T12:52:02;15.20;99.90
37528;DHT22;23372;52.050;4.810;2023-04-15T12:54:29;15.90;99.90
37528;DHT22;23372;52.050;4.810;2023-04-15T12:56:56;16.10;99.90
37528;DHT22;23372;52.050;4.810;2023-04-15T12:59:22;15.70;99.90
37528;DHT22;23372;52.050;4.810;2023-04-15T13:01:48;15.20;99.90
37528;DHT22;23372;52.050;4.810;2023-04-15T13:04:15;15.10;99.90
37528;DHT22;23372;52.050;4.810;2023-04-15T13:06:41;15.10;99.90
37528;DHT22;23372;52.050;4.810;2023-04-15T13:09:07;14.70;99.90
37528;DHT22;23372;52.050;4.810;2023-04-15T13:11:33;14.30;99.90
37528;DHT22;23372;52.050;4.810;2023-04-15T13:14:03;14.30;99.90
37528;DHT22;23372;52.050;4.810;2023-04-15T13:16:29;14.60;99.90
37528;DHT22;23372;52.050;4.810;2023-04-15T13:18:56;14.60;99.90
37528;DHT22;23372;52.050;4.810;2023-04-15T13:21:22;14.30;99.90
37528;DHT22;23372;52.050;4.810;2023-04-15T13:23:48;14.20;99.90
37528;DHT22;23372;52.050;4.810;2023-04-15T13:26:16;14.70;99.90
37528;DHT22;23372;52.050;4.810;2023-04-15T13:28:42;14.90;99.90
37528;DHT22;23372;52.050;4.810;2023-04-15T13:31:07;15.10;99.90
37528;DHT22;23372;52.050;4.810;2023-04-15T13:33:33;15.40;99.90
37528;DHT22;23372;52.050;4.810;2023-04-15T13:35:58;15.20;99.90
37528;DHT22;23372;52.050;4.810;2023-04-15T13:38:24;15.00;99.90
37528;DHT22;23372;52.050;4.810;2023-04-15T13:40:50;15.30;99.90
37528;DHT22;23372;52.050;4.810;2023-04-15T13:43:16;15.20;99.90
37528;DHT22;23372;52.050;4.810;2023-04-15T13:45:42;15.20;99.90
37528;DHT22;23372;52.050;4.810;2023-04-15T13:48:07;15.10;99.90
37528;DHT22;23372;52.050;4.810;2023-04-15T13:50:33;14.70;99.90
37528;DHT22;23372;52.050;4.810;2023-04-15T13:52:59;14.60;99.90
37528;DHT22;23372;52.050;4.810;2023-04-15T13:55:25;14.90;99.90
37528;DHT22;23372;52.050;4.810;2023-04-15T13:57:50;15.10;99.90
37528;DHT22;23372;52.050;4.810;2023-04-15T14:00:16;15.10;99.90
37528;DHT22;23372;52.050;4.810;2023-04-15T14:02:42;14.70;99.90
37528;DHT22;23372;52.050;4.810;2023-04-15T14:05:10;14.80;99.90
37528;DHT22;23372;52.050;4.810;2023-04-15T14:07:35;15.10;99.90
37528;DHT22;23372;52.050;4.810;2023-04-15T14:10:01;15.00;99.90
37528;DHT22;23372;52.050;4.810;2023-04-15T14:12:27;14.50;99.90
37528;DHT22;23372;52.050;4.810;2023-04-15T14:14:53;14.20;99.90
37528;DHT22;23372;52.050;4.810;2023-04-15T14:17:18;14.40;99.90
37528;DHT22;23372;52.050;4.810;2023-04-15T14:19:44;14.40;99.90
37528;DHT22;23372;52.050;4.810;2023-04-15T14:22:09;14.70;99.90
37528;DHT22;23372;52.050;4.810;2023-04-15T14:24:35;15.00;99.90
37528;DHT22;23372;52.050;4.810;2023-04-15T14:27:01;14.80;99.90
37528;DHT22;23372;52.050;4.810;2023-04-15T14:29:27;14.30;99.90
37528;DHT22;23372;52.050;4.810;2023-04-15T14:31:52;14.40;99.90
37528;DHT22;23372;52.050;4.810;2023-04-15T14:34:18;14.30;99.90
37528;DHT22;23372;52.050;4.810;2023-04-15T14:36:43;13.90;99.90
37528;DHT22;23372;52.050;4.810;2023-04-15T14:39:10;14.00;99.90
37528;DHT22;23372;52.050;4.810;2023-04-15T14:41:35;14.50;99.90
37528;DHT22;23372;52.050;4.810;2023-04-15T14:44:02;14.50;99.90
37528;DHT22;23372;52.050;4.810;2023-04-15T14:46:27;14.40;99.90
37528;DHT22;23372;52.050;4.810;2023-04-15T14:48:53;13.90;99.90
37528;DHT22;23372;52.050;4.810;2023-04-15T14:51:19;13.60;99.90
37528;DHT22;23372;52.050;4.810;2023-04-15T14:53:44;13.80;99.90
37528;DHT22;23372;52.050;4.810;2023-04-15T14:56:10;13.90;99.90
37528;DHT22;23372;52.050;4.810;2023-04-15T14:58:36;13.90;99.90
37528;DHT22;23372;52.050;4.810;2023-04-15T15:01:02;14.20;99.90
37528;DHT22;23372;52.050;4.810;2023-04-15T15:03:29;14.00;99.90
37528;DHT22;23372;52.050;4.810;2023-04-15T15:05:54;13.90;99.90
37528;DHT22;23372;52.050;4.810;2023-04-15T15:08:22;14.40;99.90
37528;DHT22;23372;52.050;4.810;2023-04-15T15:10:47;14.20;99.90
37528;DHT22;23372;52.050;4.810;2023-04-15T15:13:13;14.30;99.90
37528;DHT22;23372;52.050;4.810;2023-04-15T15:15:39;14.00;99.90
37528;DHT22;23372;52.050;4.810;2023-04-15T15:18:04;13.70;99.90
37528;DHT22;23372;52.050;4.810;2023-04-15T15:20:30;13.80;99.90
37528;DHT22;23372;52.050;4.810;2023-04-15T15:22:57;13.80;99.90
37528;DHT22;23372;52.050;4.810;2023-04-15T15:25:23;13.20;99.90
37528;DHT22;23372;52.050;4.810;2023-04-15T15:27:48;13.30;99.90
37528;DHT22;23372;52.050;4.810;2023-04-15T15:30:14;13.30;99.90
37528;DHT22;23372;52.050;4.810;2023-04-15T15:32:40;13.40;99.90
37528;DHT22;23372;52.050;4.810;2023-04-15T15:35:06;13.30;99.90
37528;DHT22;23372;52.050;4.810;2023-04-15T15:37:32;13.60;99.90
37528;DHT22;23372;52.050;4.810;2023-04-15T15:39:58;13.70;99.90
37528;DHT22;23372;52.050;4.810;2023-04-15T15:42:24;13.70;99.90